Pantokrator — SVA6910 — position and weather

sailwx.info

Track history (hours):
 
Tides and Currents Weather Stations Pressure Air Temp Water Temp Dewpoint Dewpoint Depression Visibility Wind Speed Wind Dir Waves Ship Positions

Pantokrator

Last reported at 2018-Feb-23 12:12 UTC. Time now 2018-Feb-23 16:52 UTC.
Position N 37°57' E 023°36'.

Length 40 m; draft 3.8 m.

Type: Tug. MMSI: 241443000.

Date/timePositionNaut miles runAvg speedWind from/ knotsBaromVisibWave heightAir tempDewpointWater temp
2018-Feb-23 12:12N 37°57' E 023°36'0 0.0
2018-Feb-23 12:01N 37°57' E 023°36'0 0.8
2018-Feb-23 11:31N 37°57' E 023°36'0 0.0
2018-Feb-23 11:00N 37°57' E 023°36'0 0.0
2018-Feb-23 10:30N 37°57' E 023°36'0 0.0
2018-Feb-23 10:00N 37°57' E 023°36'0 0.0
2018-Feb-23 09:30N 37°57' E 023°36'1 2.9
2018-Feb-23 09:00N 37°57' E 023°34'4 8.6
2018-Feb-23 08:30N 38°01' E 023°32'1 2.5
2018-Feb-23 08:01N 38°02' E 023°31'0 0.6
2018-Feb-23 07:31N 38°02' E 023°30'0 0.0
2018-Feb-23 07:00N 38°02' E 023°30'0 0.1
2018-Feb-23 06:30N 38°02' E 023°30'4 8.6
2018-Feb-23 06:00N 37°58' E 023°33'3 6.3
2018-Feb-23 05:30N 37°57' E 023°36'0 0.0
2018-Feb-23 05:00N 37°57' E 023°36'0 0.0
2018-Feb-23 04:30N 37°57' E 023°36'0 0.0
2018-Feb-23 04:00N 37°57' E 023°36'0 0.0
2018-Feb-22 15:30N 37°57' E 023°36'0 0.0
2018-Feb-22 15:00N 37°57' E 023°36'0 0.0
2018-Feb-22 14:30N 37°57' E 023°36'0 0.0
2018-Feb-22 14:00N 37°57' E 023°36'0 0.0
2018-Feb-22 13:30N 37°57' E 023°36'0 0.2
2018-Feb-22 13:00N 37°57' E 023°36'1 1.3
2018-Feb-22 12:31N 37°57' E 023°36'4 7.8
2018-Feb-22 12:00N 38°00' E 023°33'2 4.1
2018-Feb-22 11:31N 38°00' E 023°30'0 0.1
2018-Feb-22 11:01N 38°00' E 023°30'0 0.0
2018-Feb-22 10:31N 38°00' E 023°30'0 0.0
2018-Feb-22 10:01N 38°00' E 023°30'0 0.0
2018-Feb-22 09:31N 38°00' E 023°30'0 0.0
2018-Feb-22 09:01N 38°00' E 023°30'0 0.0
2018-Feb-22 08:30N 38°00' E 023°30'0 0.0
2018-Feb-22 08:00N 38°00' E 023°30'2 4.6
2018-Feb-22 07:30N 37°60' E 023°33'4 7.2
2018-Feb-22 07:00N 37°57' E 023°36'1 1.2
2018-Feb-22 06:30N 37°57' E 023°36'0 0.0
2018-Feb-22 06:00N 37°57' E 023°36'0 0.0
2018-Feb-22 05:30N 37°57' E 023°36'0 0.0
2018-Feb-22 05:00N 37°57' E 023°36'0 0.0
2018-Feb-22 04:30N 37°57' E 023°36'0 0.0
2018-Feb-22 04:00N 37°57' E 023°36'0 0.0
2018-Feb-21 12:14N 37°57' E 023°36'0 0.0
2018-Feb-21 12:00N 37°57' E 023°36'0 0.0
2018-Feb-21 11:30N 37°57' E 023°36'0 0.0
2018-Feb-21 11:00N 37°57' E 023°36'0 0.0
2018-Feb-21 10:30N 37°57' E 023°36'0 0.0
2018-Feb-21 10:00N 37°57' E 023°36'0 0.0
2018-Feb-21 09:30N 37°57' E 023°36'0 0.0
2018-Feb-21 09:01N 37°57' E 023°36'0 0.0
2018-Feb-21 08:30N 37°57' E 023°36'0 0.0
2018-Feb-21 08:00N 37°57' E 023°36'3 6.4
2018-Feb-21 07:30N 37°58' E 023°33'4 7.7
2018-Feb-21 07:00N 38°01' E 023°29'4 7.1
2018-Feb-21 06:30N 37°58' E 023°26'2 4.7
2018-Feb-21 06:00N 37°58' E 023°23'1 2.4
2018-Feb-21 05:30N 37°58' E 023°24'0 0.0
2018-Feb-21 05:00N 37°58' E 023°24'0 0.0
2018-Feb-21 04:30N 37°58' E 023°24'0 0.0
2018-Feb-21 04:01N 37°58' E 023°24'0 0.0
2018-Feb-21 03:31N 37°58' E 023°24'0 0.0
2018-Feb-21 03:01N 37°58' E 023°24'0 0.0
2018-Feb-21 02:31N 37°58' E 023°24'0 0.0
2018-Feb-21 02:00N 37°58' E 023°24'0 0.0
2018-Feb-21 01:30N 37°58' E 023°24'0 0.0
2018-Feb-21 01:01N 37°58' E 023°24'0 0.0
2018-Feb-21 00:31N 37°58' E 023°24'0 0.0
2018-Feb-21 00:00N 37°58' E 023°24'0 0.0
2018-Feb-20 23:31N 37°58' E 023°24'0 0.0
2018-Feb-20 23:00N 37°58' E 023°24'0 0.0
2018-Feb-20 22:31N 37°58' E 023°24'0 0.0
2018-Feb-20 22:00N 37°58' E 023°24'0 0.0
2018-Feb-20 21:31N 37°58' E 023°24'0 0.0
2018-Feb-20 21:01N 37°58' E 023°24'0 0.0
2018-Feb-20 20:31N 37°58' E 023°24'0 0.0
2018-Feb-20 20:00N 37°58' E 023°24'0 0.0
2018-Feb-20 19:30N 37°58' E 023°24'0 0.0
2018-Feb-20 19:00N 37°58' E 023°24'0 0.0
2018-Feb-20 18:31N 37°58' E 023°24'0 0.0
2018-Feb-20 18:00N 37°58' E 023°24'0 0.0
2018-Feb-20 17:31N 37°58' E 023°24'0 0.0
2018-Feb-20 17:01N 37°58' E 023°24'0 0.0
2018-Feb-20 16:31N 37°58' E 023°24'0 0.0
2018-Feb-20 16:00N 37°58' E 023°24'0 0.0
2018-Feb-20 15:31N 37°58' E 023°24'0 0.0
2018-Feb-20 15:00N 37°58' E 023°24'0 0.0
2018-Feb-20 14:30N 37°58' E 023°24'0 0.0
2018-Feb-20 14:00N 37°58' E 023°24'0 0.0
2018-Feb-20 13:30N 37°58' E 023°24'0 0.0
2018-Feb-20 13:00N 37°58' E 023°24'0 0.0
2018-Feb-20 12:30N 37°58' E 023°24'0 0.0
2018-Feb-20 12:01N 37°58' E 023°24'1 1.6
2018-Feb-20 11:30N 37°59' E 023°25'4 8.1
2018-Feb-20 11:01N 38°01' E 023°29'4 7.8
2018-Feb-20 10:30N 37°58' E 023°33'3 5.9
2018-Feb-20 10:00N 37°57' E 023°36'0 0.0
2018-Feb-20 09:30N 37°57' E 023°36'0 0.0
2018-Feb-20 09:00N 37°57' E 023°36'0 0.0
2018-Feb-20 08:30N 37°57' E 023°36'0 0.0
2018-Feb-20 08:00N 37°57' E 023°36'0 0.0
2018-Feb-20 07:30N 37°57' E 023°36'0 0.0
2018-Feb-20 07:01N 37°57' E 023°36'0 0.0
2018-Feb-20 06:30N 37°57' E 023°36'0 0.0
2018-Feb-20 06:00N 37°57' E 023°36'0 0.0
2018-Feb-20 05:31N 37°57' E 023°36'0 0.0
2018-Feb-20 05:00N 37°57' E 023°36'0 0.0
2018-Feb-20 04:30N 37°57' E 023°36'0 0.0
2018-Feb-20 04:00N 37°57' E 023°36'0 0.0
2018-Feb-19 10:41N 37°57' E 023°36'0 0.0
2018-Feb-19 10:30N 37°57' E 023°36'1 1.9
2018-Feb-19 10:00N 37°57' E 023°35'1 1.7
2018-Feb-19 09:31N 37°57' E 023°36'0 0.9
2018-Feb-19 09:00N 37°57' E 023°36'0 0.0
2018-Feb-19 08:30N 37°57' E 023°36'0 0.0
2018-Feb-19 08:00N 37°57' E 023°36'0 0.0
2018-Feb-19 07:30N 37°57' E 023°36'0 0.0
2018-Feb-19 07:00N 37°57' E 023°36'0 0.0
2018-Feb-19 06:30N 37°57' E 023°36'0 0.0
2018-Feb-19 06:00N 37°57' E 023°36'0 0.0
2018-Feb-19 05:30N 37°57' E 023°36'0 0.0
2018-Feb-19 05:00N 37°57' E 023°36'0 0.0
2018-Feb-19 04:30N 37°57' E 023°36'0 0.0
2018-Feb-19 04:00N 37°57' E 023°36'0 0.0
2018-Feb-18 13:45N 37°57' E 023°36'0 0.2
2018-Feb-18 13:31N 37°57' E 023°36'1 1.1
2018-Feb-18 13:00N 37°58' E 023°36'0 0.0
2018-Feb-18 12:30N 37°58' E 023°36'1 1.1
2018-Feb-18 12:00N 37°57' E 023°36'0 0.0
2018-Feb-18 11:30N 37°57' E 023°36'0 0.0
2018-Feb-18 11:00N 37°57' E 023°36'0 0.0
2018-Feb-18 10:30N 37°57' E 023°36'0 0.0
2018-Feb-18 10:00N 37°57' E 023°36'0 0.0
2018-Feb-18 09:30N 37°57' E 023°36'0 0.0
2018-Feb-18 09:00N 37°57' E 023°36'0 0.0
2018-Feb-18 08:30N 37°57' E 023°36'0 0.0
2018-Feb-18 08:00N 37°57' E 023°36'0 0.0
2018-Feb-18 07:30N 37°57' E 023°36'0 0.0
2018-Feb-18 07:00N 37°57' E 023°36'1 1.2
2018-Feb-18 06:30N 37°58' E 023°36'0 0.8
2018-Feb-18 06:00N 37°57' E 023°36'1 2.3
2018-Feb-18 05:30N 37°56' E 023°36'1 1.6
2018-Feb-18 05:01N 37°57' E 023°36'0 0.7
2018-Feb-18 04:30N 37°57' E 023°36'0 0.0
2018-Feb-18 04:00N 37°57' E 023°36'0 0.0
2018-Feb-16 11:55N 37°57' E 023°36'0 0.0
2018-Feb-16 11:30N 37°57' E 023°36'0 0.0
2018-Feb-16 11:00N 37°57' E 023°36'0 0.0
2018-Feb-16 10:30N 37°57' E 023°36'0 0.0
2018-Feb-16 10:00N 37°57' E 023°36'0 1.0
2018-Feb-16 09:30N 37°57' E 023°36'0 0.7
2018-Feb-16 09:00N 37°57' E 023°36'0 0.1
2018-Feb-16 08:30N 37°57' E 023°36'0 0.7
2018-Feb-16 08:00N 37°57' E 023°36'0 0.0
2018-Feb-16 07:30N 37°57' E 023°36'0 0.0
2018-Feb-16 07:00N 37°57' E 023°36'0 0.0
2018-Feb-16 06:30N 37°57' E 023°36'0 0.0
2018-Feb-16 06:00N 37°57' E 023°36'0 0.0
2018-Feb-16 05:30N 37°57' E 023°36'0 0.0
2018-Feb-16 05:00N 37°57' E 023°36'0 0.0
2018-Feb-16 04:30N 37°57' E 023°36'0 0.0
2018-Feb-16 04:00N 37°57' E 023°36'0 0.0
2018-Feb-15 12:04N 37°57' E 023°36'0 0.1
2018-Feb-15 12:00N 37°57' E 023°36'0 0.0
2018-Feb-15 11:30N 37°57' E 023°36'0 0.0
2018-Feb-15 11:00N 37°57' E 023°36'0 0.0
2018-Feb-15 10:30N 37°57' E 023°36'0 0.0
2018-Feb-15 10:00N 37°57' E 023°36'0 0.0
2018-Feb-15 09:30N 37°57' E 023°36'0 0.0
2018-Feb-15 09:00N 37°57' E 023°36'0 0.0
2018-Feb-15 08:30N 37°57' E 023°36'0 0.0
2018-Feb-15 08:00N 37°57' E 023°36'0 0.0
2018-Feb-15 07:30N 37°57' E 023°36'0 0.0
2018-Feb-15 07:00N 37°57' E 023°36'0 0.0
2018-Feb-15 06:23N 37°57' E 023°36'0 0.0
2018-Feb-15 05:47N 37°57' E 023°36'0 0.4
2018-Feb-15 05:30N 37°57' E 023°36'0 0.2
2018-Feb-15 05:00N 37°57' E 023°36'0 0.0
2018-Feb-15 04:30N 37°57' E 023°36'0 0.0
2018-Feb-15 03:45N 37°57' E 023°36'0 0.0
2018-Feb-15 03:30N 37°57' E 023°36'0 0.0
2018-Feb-14 12:07N 37°57' E 023°36'0 0.0
2018-Feb-14 12:00N 37°57' E 023°36'0 0.0
2018-Feb-14 11:30N 37°57' E 023°36'0 0.0
2018-Feb-14 11:00N 37°57' E 023°36'0 0.0
2018-Feb-14 10:30N 37°57' E 023°36'0 0.0
2018-Feb-14 10:00N 37°57' E 023°36'0 0.0
2018-Feb-14 09:30N 37°57' E 023°36'3 6.1
2018-Feb-14 09:01N 37°58' E 023°33'4 7.9
2018-Feb-14 08:31N 38°01' E 023°36'0 0.2
2018-Feb-14 08:00N 38°01' E 023°35'4 7.9
2018-Feb-14 07:30N 37°58' E 023°33'1 2.5
2018-Feb-14 07:00N 37°57' E 023°34'2 3.8
2018-Feb-14 06:30N 37°57' E 023°36'0 0.0
2018-Feb-14 06:00N 37°57' E 023°36'0 0.0
2018-Feb-14 05:30N 37°57' E 023°36'0 0.0
2018-Feb-14 05:00N 37°57' E 023°36'0 0.0
2018-Feb-14 04:30N 37°57' E 023°36'0 0.0
2018-Feb-14 04:00N 37°57' E 023°36'  
Track history (hours):
 
Tides and Currents Weather Stations Pressure Air Temp Water Temp Dewpoint Dewpoint Depression Visibility Wind Speed Wind Dir Waves Ship Positions

Pantokrator

Last reported at 2018-Feb-23 12:12 UTC. Time now 2018-Feb-23 16:52 UTC.
Position N 37°57' E 023°36'.

Length 40 m; draft 3.8 m.

Type: Tug. MMSI: 241443000.

Date/timePositionNaut miles runAvg speedWind from/ knotsBaromVisibWave heightAir tempDewpointWater temp
2018-Feb-23 12:12N 37°57' E 023°36'0 0.0
2018-Feb-23 12:01N 37°57' E 023°36'0 0.8
2018-Feb-23 11:31N 37°57' E 023°36'0 0.0
2018-Feb-23 11:00N 37°57' E 023°36'0 0.0
2018-Feb-23 10:30N 37°57' E 023°36'0 0.0
2018-Feb-23 10:00N 37°57' E 023°36'0 0.0
2018-Feb-23 09:30N 37°57' E 023°36'1 2.9
2018-Feb-23 09:00N 37°57' E 023°34'4 8.6
2018-Feb-23 08:30N 38°01' E 023°32'1 2.5
2018-Feb-23 08:01N 38°02' E 023°31'0 0.6
2018-Feb-23 07:31N 38°02' E 023°30'0 0.0
2018-Feb-23 07:00N 38°02' E 023°30'0 0.1
2018-Feb-23 06:30N 38°02' E 023°30'4 8.6
2018-Feb-23 06:00N 37°58' E 023°33'3 6.3
2018-Feb-23 05:30N 37°57' E 023°36'0 0.0
2018-Feb-23 05:00N 37°57' E 023°36'0 0.0
2018-Feb-23 04:30N 37°57' E 023°36'0 0.0
2018-Feb-23 04:00N 37°57' E 023°36'0 0.0
2018-Feb-22 15:30N 37°57' E 023°36'0 0.0
2018-Feb-22 15:00N 37°57' E 023°36'0 0.0
2018-Feb-22 14:30N 37°57' E 023°36'0 0.0
2018-Feb-22 14:00N 37°57' E 023°36'0 0.0
2018-Feb-22 13:30N 37°57' E 023°36'0 0.2
2018-Feb-22 13:00N 37°57' E 023°36'1 1.3
2018-Feb-22 12:31N 37°57' E 023°36'4 7.8
2018-Feb-22 12:00N 38°00' E 023°33'2 4.1
2018-Feb-22 11:31N 38°00' E 023°30'0 0.1
2018-Feb-22 11:01N 38°00' E 023°30'0 0.0
2018-Feb-22 10:31N 38°00' E 023°30'0 0.0
2018-Feb-22 10:01N 38°00' E 023°30'0 0.0
2018-Feb-22 09:31N 38°00' E 023°30'0 0.0
2018-Feb-22 09:01N 38°00' E 023°30'0 0.0
2018-Feb-22 08:30N 38°00' E 023°30'0 0.0
2018-Feb-22 08:00N 38°00' E 023°30'2 4.6
2018-Feb-22 07:30N 37°60' E 023°33'4 7.2
2018-Feb-22 07:00N 37°57' E 023°36'1 1.2
2018-Feb-22 06:30N 37°57' E 023°36'0 0.0
2018-Feb-22 06:00N 37°57' E 023°36'0 0.0
2018-Feb-22 05:30N 37°57' E 023°36'0 0.0
2018-Feb-22 05:00N 37°57' E 023°36'0 0.0
2018-Feb-22 04:30N 37°57' E 023°36'0 0.0
2018-Feb-22 04:00N 37°57' E 023°36'0 0.0
2018-Feb-21 12:14N 37°57' E 023°36'0 0.0
2018-Feb-21 12:00N 37°57' E 023°36'0 0.0
2018-Feb-21 11:30N 37°57' E 023°36'0 0.0
2018-Feb-21 11:00N 37°57' E 023°36'0 0.0
2018-Feb-21 10:30N 37°57' E 023°36'0 0.0
2018-Feb-21 10:00N 37°57' E 023°36'0 0.0
2018-Feb-21 09:30N 37°57' E 023°36'0 0.0
2018-Feb-21 09:01N 37°57' E 023°36'0 0.0
2018-Feb-21 08:30N 37°57' E 023°36'0 0.0
2018-Feb-21 08:00N 37°57' E 023°36'3 6.4
2018-Feb-21 07:30N 37°58' E 023°33'4 7.7
2018-Feb-21 07:00N 38°01' E 023°29'4 7.1
2018-Feb-21 06:30N 37°58' E 023°26'2 4.7
2018-Feb-21 06:00N 37°58' E 023°23'1 2.4
2018-Feb-21 05:30N 37°58' E 023°24'0 0.0
2018-Feb-21 05:00N 37°58' E 023°24'0 0.0
2018-Feb-21 04:30N 37°58' E 023°24'0 0.0
2018-Feb-21 04:01N 37°58' E 023°24'0 0.0
2018-Feb-21 03:31N 37°58' E 023°24'0 0.0
2018-Feb-21 03:01N 37°58' E 023°24'0 0.0
2018-Feb-21 02:31N 37°58' E 023°24'0 0.0
2018-Feb-21 02:00N 37°58' E 023°24'0 0.0
2018-Feb-21 01:30N 37°58' E 023°24'0 0.0
2018-Feb-21 01:01N 37°58' E 023°24'0 0.0
2018-Feb-21 00:31N 37°58' E 023°24'0 0.0
2018-Feb-21 00:00N 37°58' E 023°24'0 0.0
2018-Feb-20 23:31N 37°58' E 023°24'0 0.0
2018-Feb-20 23:00N 37°58' E 023°24'0 0.0
2018-Feb-20 22:31N 37°58' E 023°24'0 0.0
2018-Feb-20 22:00N 37°58' E 023°24'0 0.0
2018-Feb-20 21:31N 37°58' E 023°24'0 0.0
2018-Feb-20 21:01N 37°58' E 023°24'0 0.0
2018-Feb-20 20:31N 37°58' E 023°24'0 0.0
2018-Feb-20 20:00N 37°58' E 023°24'0 0.0
2018-Feb-20 19:30N 37°58' E 023°24'0 0.0
2018-Feb-20 19:00N 37°58' E 023°24'0 0.0
2018-Feb-20 18:31N 37°58' E 023°24'0 0.0
2018-Feb-20 18:00N 37°58' E 023°24'0 0.0
2018-Feb-20 17:31N 37°58' E 023°24'0 0.0
2018-Feb-20 17:01N 37°58' E 023°24'0 0.0
2018-Feb-20 16:31N 37°58' E 023°24'0 0.0
2018-Feb-20 16:00N 37°58' E 023°24'0 0.0
2018-Feb-20 15:31N 37°58' E 023°24'0 0.0
2018-Feb-20 15:00N 37°58' E 023°24'0 0.0
2018-Feb-20 14:30N 37°58' E 023°24'0 0.0
2018-Feb-20 14:00N 37°58' E 023°24'0 0.0
2018-Feb-20 13:30N 37°58' E 023°24'0 0.0
2018-Feb-20 13:00N 37°58' E 023°24'0 0.0
2018-Feb-20 12:30N 37°58' E 023°24'0 0.0
2018-Feb-20 12:01N 37°58' E 023°24'1 1.6
2018-Feb-20 11:30N 37°59' E 023°25'4 8.1
2018-Feb-20 11:01N 38°01' E 023°29'4 7.8
2018-Feb-20 10:30N 37°58' E 023°33'3 5.9
2018-Feb-20 10:00N 37°57' E 023°36'0 0.0
2018-Feb-20 09:30N 37°57' E 023°36'0 0.0
2018-Feb-20 09:00N 37°57' E 023°36'0 0.0
2018-Feb-20 08:30N 37°57' E 023°36'0 0.0
2018-Feb-20 08:00N 37°57' E 023°36'0 0.0
2018-Feb-20 07:30N 37°57' E 023°36'0 0.0
2018-Feb-20 07:01N 37°57' E 023°36'0 0.0
2018-Feb-20 06:30N 37°57' E 023°36'0 0.0
2018-Feb-20 06:00N 37°57' E 023°36'0 0.0
2018-Feb-20 05:31N 37°57' E 023°36'0 0.0
2018-Feb-20 05:00N 37°57' E 023°36'0 0.0
2018-Feb-20 04:30N 37°57' E 023°36'0 0.0
2018-Feb-20 04:00N 37°57' E 023°36'0 0.0
2018-Feb-19 10:41N 37°57' E 023°36'0 0.0
2018-Feb-19 10:30N 37°57' E 023°36'1 1.9
2018-Feb-19 10:00N 37°57' E 023°35'1 1.7
2018-Feb-19 09:31N 37°57' E 023°36'0 0.9
2018-Feb-19 09:00N 37°57' E 023°36'0 0.0
2018-Feb-19 08:30N 37°57' E 023°36'0 0.0
2018-Feb-19 08:00N 37°57' E 023°36'0 0.0
2018-Feb-19 07:30N 37°57' E 023°36'0 0.0
2018-Feb-19 07:00N 37°57' E 023°36'0 0.0
2018-Feb-19 06:30N 37°57' E 023°36'0 0.0
2018-Feb-19 06:00N 37°57' E 023°36'0 0.0
2018-Feb-19 05:30N 37°57' E 023°36'0 0.0
2018-Feb-19 05:00N 37°57' E 023°36'0 0.0
2018-Feb-19 04:30N 37°57' E 023°36'0 0.0
2018-Feb-19 04:00N 37°57' E 023°36'0 0.0
2018-Feb-18 13:45N 37°57' E 023°36'0 0.2
2018-Feb-18 13:31N 37°57' E 023°36'1 1.1
2018-Feb-18 13:00N 37°58' E 023°36'0 0.0
2018-Feb-18 12:30N 37°58' E 023°36'1 1.1
2018-Feb-18 12:00N 37°57' E 023°36'0 0.0
2018-Feb-18 11:30N 37°57' E 023°36'0 0.0
2018-Feb-18 11:00N 37°57' E 023°36'0 0.0
2018-Feb-18 10:30N 37°57' E 023°36'0 0.0
2018-Feb-18 10:00N 37°57' E 023°36'0 0.0
2018-Feb-18 09:30N 37°57' E 023°36'0 0.0
2018-Feb-18 09:00N 37°57' E 023°36'0 0.0
2018-Feb-18 08:30N 37°57' E 023°36'0 0.0
2018-Feb-18 08:00N 37°57' E 023°36'0 0.0
2018-Feb-18 07:30N 37°57' E 023°36'0 0.0
2018-Feb-18 07:00N 37°57' E 023°36'1 1.2
2018-Feb-18 06:30N 37°58' E 023°36'0 0.8
2018-Feb-18 06:00N 37°57' E 023°36'1 2.3
2018-Feb-18 05:30N 37°56' E 023°36'1 1.6
2018-Feb-18 05:01N 37°57' E 023°36'0 0.7
2018-Feb-18 04:30N 37°57' E 023°36'0 0.0
2018-Feb-18 04:00N 37°57' E 023°36'0 0.0
2018-Feb-16 11:55N 37°57' E 023°36'0 0.0
2018-Feb-16 11:30N 37°57' E 023°36'0 0.0
2018-Feb-16 11:00N 37°57' E 023°36'0 0.0
2018-Feb-16 10:30N 37°57' E 023°36'0 0.0
2018-Feb-16 10:00N 37°57' E 023°36'0 1.0
2018-Feb-16 09:30N 37°57' E 023°36'0 0.7
2018-Feb-16 09:00N 37°57' E 023°36'0 0.1
2018-Feb-16 08:30N 37°57' E 023°36'0 0.7
2018-Feb-16 08:00N 37°57' E 023°36'0 0.0
2018-Feb-16 07:30N 37°57' E 023°36'0 0.0
2018-Feb-16 07:00N 37°57' E 023°36'0 0.0
2018-Feb-16 06:30N 37°57' E 023°36'0 0.0
2018-Feb-16 06:00N 37°57' E 023°36'0 0.0
2018-Feb-16 05:30N 37°57' E 023°36'0 0.0
2018-Feb-16 05:00N 37°57' E 023°36'0 0.0
2018-Feb-16 04:30N 37°57' E 023°36'0 0.0
2018-Feb-16 04:00N 37°57' E 023°36'0 0.0
2018-Feb-15 12:04N 37°57' E 023°36'0 0.1
2018-Feb-15 12:00N 37°57' E 023°36'0 0.0
2018-Feb-15 11:30N 37°57' E 023°36'0 0.0
2018-Feb-15 11:00N 37°57' E 023°36'0 0.0
2018-Feb-15 10:30N 37°57' E 023°36'0 0.0
2018-Feb-15 10:00N 37°57' E 023°36'0 0.0
2018-Feb-15 09:30N 37°57' E 023°36'0 0.0
2018-Feb-15 09:00N 37°57' E 023°36'0 0.0
2018-Feb-15 08:30N 37°57' E 023°36'0 0.0
2018-Feb-15 08:00N 37°57' E 023°36'0 0.0
2018-Feb-15 07:30N 37°57' E 023°36'0 0.0
2018-Feb-15 07:00N 37°57' E 023°36'0 0.0
2018-Feb-15 06:23N 37°57' E 023°36'0 0.0
2018-Feb-15 05:47N 37°57' E 023°36'0 0.4
2018-Feb-15 05:30N 37°57' E 023°36'0 0.2
2018-Feb-15 05:00N 37°57' E 023°36'0 0.0
2018-Feb-15 04:30N 37°57' E 023°36'0 0.0
2018-Feb-15 03:45N 37°57' E 023°36'0 0.0
2018-Feb-15 03:30N 37°57' E 023°36'0 0.0
2018-Feb-14 12:07N 37°57' E 023°36'0 0.0
2018-Feb-14 12:00N 37°57' E 023°36'0 0.0
2018-Feb-14 11:30N 37°57' E 023°36'0 0.0
2018-Feb-14 11:00N 37°57' E 023°36'0 0.0
2018-Feb-14 10:30N 37°57' E 023°36'0 0.0
2018-Feb-14 10:00N 37°57' E 023°36'0 0.0
2018-Feb-14 09:30N 37°57' E 023°36'3 6.1
2018-Feb-14 09:01N 37°58' E 023°33'4 7.9
2018-Feb-14 08:31N 38°01' E 023°36'0 0.2
2018-Feb-14 08:00N 38°01' E 023°35'4 7.9
2018-Feb-14 07:30N 37°58' E 023°33'1 2.5
2018-Feb-14 07:00N 37°57' E 023°34'2 3.8
2018-Feb-14 06:30N 37°57' E 023°36'0 0.0
2018-Feb-14 06:00N 37°57' E 023°36'0 0.0
2018-Feb-14 05:30N 37°57' E 023°36'0 0.0
2018-Feb-14 05:00N 37°57' E 023°36'0 0.0
2018-Feb-14 04:30N 37°57' E 023°36'0 0.0
2018-Feb-14 04:00N 37°57' E 023°36'  

Dump ship's entire track history